Ship Status Report: callsign AMOUK21

sailwx.info

Track history (hours):
 
Tides and Currents Weather Stations Pressure Air Temp Water Temp Dewpoint Dewpoint Depression Visibility Wind Speed Wind Dir Waves Ship Positions

Callsign AMOUK21 (name unknown)

Last reported at 2014-Aug-27 07:00 UTC. Time now 2014-Aug-27 09:11 UTC.
Position N 56°36' W 006°18'.

Barometer 1014.7 mb
Air temperature 11.4 ° C
Dewpoint 6.9 ° C

Date/timePositionNaut miles runAvg speedWind from/ knotsBaromVisibWave heightAir tempDewpointWater temp
2014-Aug-27 07:00N 56°36' W 006°18'1313.2 1014.7 11.4 6.9
2014-Aug-27 06:00N 56°36' W 005°54'1817.9 1015.6 11.0 7.0
2014-Aug-27 05:00N 56°24' W 005°30'0 0.0 1016.0 10.5 5.6
2014-Aug-27 04:00N 56°24' W 005°30'0 0.0 1016.4 10.3 5.3
2014-Aug-27 03:00N 56°24' W 005°30'0 0.0 1016.5 10.8 5.4
2014-Aug-27 02:00N 56°24' W 005°30'0 0.0 1016.6 10.9 5.6
2014-Aug-27 01:00N 56°24' W 005°30'0 0.0 1016.5 11.4 5.7
2014-Aug-27 00:00N 56°24' W 005°30'0 0.0 1016.3 11.7 5.9
2014-Aug-26 23:00N 56°24' W 005°30'0 0.0 1016.0 12.4 6.5
2014-Aug-26 22:00N 56°24' W 005°30'1211.6 1015.5 13.2 6.4
2014-Aug-26 21:00N 56°30' W 005°48'1615.6 1015.2 14.4 8.1
2014-Aug-26 20:00N 56°42' W 006°06'2020.4 1014.5 13.7 9.4
2014-Aug-26 19:00N 56°30' W 006°36'3 3.3 1013.6 14.5 9.5
2014-Aug-26 18:00N 56°30' W 006°42'9 8.9 1013.6 14.5 9.0
2014-Aug-26 17:00N 56°36' W 006°30'1211.6 1013.6 16.2 8.3
2014-Aug-26 16:00N 56°42' W 006°12'1817.8 1012.9 17.5 5.4
2014-Aug-26 15:00N 56°30' W 005°48'1211.6 1013.5 16.3 5.1
2014-Aug-26 14:00N 56°24' W 005°30'0 0.0 1013.3 18.0 4.9
2014-Aug-26 13:00N 56°24' W 005°30'1817.9 1013.4 15.3 7.5
2014-Aug-26 12:00N 56°36' W 005°54'1414.5 1013.1 14.8 6.5
2014-Aug-26 11:00N 56°42' W 006°18'1817.5 1012.9 13.8 8.2
2014-Aug-26 10:00N 56°48' W 006°48'1414.4 1012.6 13.1 8.3
2014-Aug-26 09:00N 56°54' W 007°12'1211.5 1011.9 13.3 8.8
2014-Aug-26 08:00N 57°00' W 007°30'0 0.0 1011.3 13.4 9.5
2014-Aug-26 07:00N 57°00' W 007°30'0 0.0 1010.7 12.9 9.0
2014-Aug-26 06:00N 57°00' W 007°30'0 0.0 1010.3 11.3 8.9
2014-Aug-26 05:00N 57°00' W 007°30'0 0.0 1009.8 11.0 8.5
2014-Aug-26 04:00N 57°00' W 007°30'0 0.0 1009.6 11.2 8.6
2014-Aug-26 03:00N 57°00' W 007°30'0 0.0 1009.4 11.7 8.9
2014-Aug-26 02:00N 57°00' W 007°30'0 0.0 1009.3 11.5 8.7
2014-Aug-26 01:00N 57°00' W 007°30'0 0.0 1009.0 12.1 8.9
2014-Aug-26 00:00N 57°00' W 007°30'0 0.0 1008.9 11.8 9.1
2014-Aug-25 23:00N 57°00' W 007°30'0 0.0 1008.5 12.2 9.5
2014-Aug-25 22:00N 57°00' W 007°30'0 0.0 1007.9 13.7 9.3
2014-Aug-25 21:00N 57°00' W 007°30'0 0.0 1007.4 13.8 9.0
2014-Aug-25 20:00N 57°00' W 007°30'1211.5 1006.9 13.4 8.6
2014-Aug-25 19:00N 56°54' W 007°12'1717.5 1006.2 15.7 8.9
2014-Aug-25 18:00N 56°48' W 006°42'1817.5 1005.7 15.4 9.7
2014-Aug-25 17:00N 56°42' W 006°12'1817.8 1005.7 16.6 7.7
2014-Aug-25 16:00N 56°30' W 005°48'1211.6 1006.0 17.4 8.0
2014-Aug-25 15:00N 56°24' W 005°30'0 0.0 1006.5 16.8 7.4
2014-Aug-25 14:00N 56°24' W 005°30'9 8.9 1006.4 16.4 6.8
2014-Aug-25 13:00N 56°30' W 005°42'1514.5 1007.1 15.4 7.1
2014-Aug-25 12:00N 56°36' W 006°06'1414.5 1006.8 16.0 4.8
2014-Aug-25 11:00N 56°42' W 006°30'1414.5 1007.7 14.3 7.3
2014-Aug-25 10:00N 56°48' W 006°54'1717.5 1007.8 13.2 6.4
2014-Aug-25 09:00N 56°54' W 007°24'3 3.3 1008.1 13.0 6.7
2014-Aug-25 08:00N 56°54' W 007°30'1515.5 1008.5 12.7 6.6
2014-Aug-25 07:00N 57°06' W 007°12'7 6.8 1007.1 12.1 7.9
2014-Aug-25 06:00N 57°12' W 007°18'0 0.0 1008.7 11.7 8.1
2014-Aug-25 05:00N 57°12' W 007°18'0 0.0 1009.1 11.8 8.4
2014-Aug-25 04:00N 57°12' W 007°18'0 0.0 1009.6 12.0 8.3
2014-Aug-25 03:00N 57°12' W 007°18'0 0.0 1010.3 12.1 8.3
2014-Aug-25 02:00N 57°12' W 007°18'0 0.0 1011.0 12.2 8.9
2014-Aug-25 01:00N 57°12' W 007°18'0 0.0 1011.6 12.5 8.1
2014-Aug-25 00:00N 57°12' W 007°18'0 0.0 1012.1 12.4 8.2
2014-Aug-24 23:00N 57°12' W 007°18'0 0.0 1012.3 12.0 8.3
2014-Aug-24 22:00N 57°12' W 007°18'1212.0 1012.8 12.2 6.4
2014-Aug-24 21:00N 57°00' W 007°18'7 6.5 1012.9 12.6 7.8
2014-Aug-24 20:00N 57°00' W 007°30'1414.4 1012.9 11.7 7.1
2014-Aug-24 19:00N 56°54' W 007°06'1717.5 1013.3 12.9 6.7
2014-Aug-24 18:00N 56°48' W 006°36'1817.5 1013.6 13.2 5.0
2014-Aug-24 17:00N 56°42' W 006°06'1817.8 1013.9 13.4 5.8
2014-Aug-24 16:00N 56°30' W 005°42'9 8.9 1014.6 14.0 4.1
2014-Aug-24 15:00N 56°24' W 005°30'0 0.0 1015.4 14.8 5.0
2014-Aug-24 14:00N 56°24' W 005°30'7 6.9 1015.7 15.1 4.8
2014-Aug-24 13:00N 56°30' W 005°36'1514.5 1016.0 12.7 4.6
2014-Aug-24 12:00N 56°36' W 006°00'1414.5 1016.1 12.9 3.2
2014-Aug-24 11:00N 56°42' W 006°24'1414.5 1016.5 11.9 4.4
2014-Aug-24 10:00N 56°48' W 006°48'1717.5 1016.5 11.7 5.0
2014-Aug-24 09:00N 56°54' W 007°18'9 8.9 1016.3 11.8 6.2
2014-Aug-24 08:00N 57°00' W 007°30'0 0.0 1016.2 13.4 8.1
2014-Aug-24 07:00N 57°00' W 007°30'0 0.0 1016.2 9.8 7.1
2014-Aug-24 06:00N 57°00' W 007°30'0 0.0 1016.2 8.8 6.5
2014-Aug-24 05:00N 57°00' W 007°30'0 0.0 1016.3 7.2 5.0
2014-Aug-24 04:00N 57°00' W 007°30'0 0.0 1016.5 7.8 5.5
2014-Aug-24 03:00N 57°00' W 007°30'0 0.0 1016.7 8.1 5.5
2014-Aug-24 02:00N 57°00' W 007°30'0 0.0 1017.1 8.3 5.4
2014-Aug-24 01:00N 57°00' W 007°30'0 0.0 1017.4 9.3 5.2
2014-Aug-24 00:00N 57°00' W 007°30'0 0.0 1017.6 10.6 5.7
2014-Aug-23 23:00N 57°00' W 007°30'0 0.0 1017.7 11.0 6.1
2014-Aug-23 22:00N 57°00' W 007°30'0 0.0 1017.7 11.7 5.6
2014-Aug-23 21:00N 57°00' W 007°30'0 0.0 1017.6 11.6 5.6
2014-Aug-23 20:00N 57°00' W 007°30'1211.5 1017.4 11.5 5.7
2014-Aug-23 19:00N 56°54' W 007°12'1414.4 1016.5 11.7 5.8
2014-Aug-23 18:00N 56°48' W 006°48'1817.5 1016.0 12.1 6.1
2014-Aug-23 17:00N 56°42' W 006°18'1414.5 1015.3 12.1 6.3
2014-Aug-23 16:00N 56°36' W 005°54'16 7.8 1015.2 12.5 6.2
2014-Aug-23 14:00N 56°24' W 005°36'1817.9 1015.0 13.0 6.2
2014-Aug-23 13:00N 56°36' W 006°00'1313.2 1015.4 12.8 6.1
2014-Aug-23 12:00N 56°36' W 006°24'9 8.9 1015.3 11.4 6.3
2014-Aug-23 11:00N 56°30' W 006°36'7 6.6 1015.3 10.8 6.4
2014-Aug-23 10:00N 56°30' W 006°48'1211.6 1015.5 11.6 5.4
2014-Aug-23 09:00N 56°36' W 006°30'1211.6 1015.2 11.4 6.6
2014-Aug-23 08:00N 56°42' W 006°12'1817.8 1014.3 11.5 5.8
2014-Aug-23 07:00N 56°30' W 005°48'1211.6 1014.0 10.8 6.8
2014-Aug-23 06:00N 56°24' W 005°30'0 0.0 1013.3 9.3 7.6
2014-Aug-23 05:00N 56°24' W 005°30'0 0.0 1013.0 8.9 7.2
2014-Aug-23 04:00N 56°24' W 005°30'0 0.0 1012.9 9.0 7.1
2014-Aug-23 03:00N 56°24' W 005°30'0 0.0 1012.7 10.3 7.3
2014-Aug-23 02:00N 56°24' W 005°30'0 0.0 1012.7 11.3 8.4
2014-Aug-23 01:00N 56°24' W 005°30'0 0.0 1012.8 10.6 7.7
2014-Aug-23 00:00N 56°24' W 005°30'0 0.0 1012.7 11.0 7.9
2014-Aug-22 23:00N 56°24' W 005°30'1514.6 1012.6 11.2 7.6
2014-Aug-22 22:00N 56°30' W 005°54'1615.6 1012.9 10.6 7.0
2014-Aug-22 21:00N 56°42' W 006°12'1817.5 1012.4 12.1 8.2
2014-Aug-22 20:00N 56°48' W 006°42'1717.5 1011.9 12.0 8.4
2014-Aug-22 19:00N 56°54' W 007°12'1211.5 1011.9 12.0 7.8
2014-Aug-22 18:00N 57°00' W 007°30'1414.4 1013.0 12.4 7.8
2014-Aug-22 17:00N 56°54' W 007°06'1414.4 1011.9 12.0 7.8
2014-Aug-22 16:00N 56°48' W 006°42'1817.5 1011.9 12.0 7.0
2014-Aug-22 15:00N 56°42' W 006°12'1817.8 1011.8 11.9 6.6
2014-Aug-22 14:00N 56°30' W 005°48'3 1.7 1011.4 12.4 5.4
2014-Aug-22 12:00N 56°30' W 005°42'1211.6 1011.4 13.0 7.1
2014-Aug-22 11:00N 56°36' W 006°00'1716.5 1012.0 12.0 6.3
2014-Aug-22 10:00N 56°36' W 006°30'9 8.9 1011.3 11.4 5.9
2014-Aug-22 09:00N 56°30' W 006°42'0 0.0 1010.8 11.4 6.3
2014-Aug-22 08:00N 56°30' W 006°42'1514.5 1011.1 11.3 6.7
2014-Aug-22 07:00N 56°36' W 006°18'1514.5 1010.2 11.5 6.7
2014-Aug-22 06:00N 56°30' W 005°54'15 4.9 1010.3 10.3 7.5
2014-Aug-22 03:00N 56°24' W 005°30'0 0.0 1009.4 11.4 7.9
2014-Aug-22 00:00N 56°24' W 005°30'0 0.0 1009.2 11.3 8.2
2014-Aug-21 23:00N 56°24' W 005°30'0 0.0 1009.0 12.0 9.1
2014-Aug-21 22:00N 56°24' W 005°30'3 3.3 1008.8 11.4 8.1
2014-Aug-21 21:00N 56°24' W 005°36'1817.9 1008.1 12.0 8.6
2014-Aug-21 20:00N 56°36' W 006°00'1313.2 1008.5 12.3 7.8
2014-Aug-21 19:00N 56°36' W 006°24'9 8.9 1006.3 12.6 8.4
2014-Aug-21 18:00N 56°30' W 006°36'3 3.3 1005.7 12.7 7.8
2014-Aug-21 17:00N 56°30' W 006°42'1615.6 1007.1 13.5 9.3
2014-Aug-21 16:00N 56°42' W 007°00'1615.5 1007.6 12.5 8.7
2014-Aug-21 15:00N 56°54' W 007°18'7 6.6 1007.9 12.5 8.2
2014-Aug-21 14:00N 56°54' W 007°30'1414.4 1007.8 11.7 8.5
2014-Aug-21 13:00N 56°48' W 007°06'1615.5 1006.7 12.5 8.4
2014-Aug-21 12:00N 56°36' W 006°48'7 6.9 1006.2 12.2 9.1
2014-Aug-21 11:00N 56°30' W 006°42'9 8.9 1005.9 12.5 8.9
2014-Aug-21 10:00N 56°36' W 006°30'1716.5 1005.5 12.2 8.7
2014-Aug-21 09:00N 56°36' W 006°00'1211.6 1005.2 12.7 9.4
2014-Aug-21 08:00N 56°30' W 005°42'9 8.9 1004.8 12.5 9.3
2014-Aug-21 07:00N 56°24' W 005°30'0 0.0 1005.2 11.6 9.5
2014-Aug-21 06:00N 56°24' W 005°30'0 0.0 1005.5 11.3 9.0
2014-Aug-21 05:00N 56°24' W 005°30'0 0.0 1005.9 11.310.0
2014-Aug-21 04:00N 56°24' W 005°30'0 0.0 1006.9 11.1 9.6
2014-Aug-21 03:00N 56°24' W 005°30'0 0.0 1007.8 11.3 9.7
2014-Aug-21 02:00N 56°24' W 005°30'0 0.0 1009.3 10.7 9.1
2014-Aug-21 01:00N 56°24' W 005°30'0 0.0 1010.3 11.1 8.3
2014-Aug-21 00:00N 56°24' W 005°30'3 3.3 1011.4 10.0 8.0
2014-Aug-20 23:00N 56°24' W 005°36'1817.9 1011.8 10.6 8.7
2014-Aug-20 22:00N 56°36' W 006°00'1211.6 1012.7 10.7 8.2
2014-Aug-20 21:00N 56°42' W 006°18'3216.0 1012.8 11.7 7.7
2014-Aug-20 19:00N 56°54' W 007°12'1211.5 1013.4 12.5 8.7
2014-Aug-20 18:00N 57°00' W 007°30'1414.4 1014.0 12.6 8.1
2014-Aug-20 17:00N 56°54' W 007°06'1717.5 1015.2 10.9 7.4
2014-Aug-20 16:00N 56°48' W 006°36'1414.5 1015.3 11.2 8.0
2014-Aug-20 15:00N 56°42' W 006°12'1817.8 1015.8 12.8 8.3
2014-Aug-20 14:00N 56°30' W 005°48'7 3.3 1016.3 11.7 7.5
2014-Aug-20 12:00N 56°30' W 005°36'1514.5 1016.7 12.8 7.4
2014-Aug-20 11:00N 56°36' W 006°00'1313.2 1017.2 11.8 7.4
2014-Aug-20 10:00N 56°36' W 006°24'9 8.9 1016.9 11.5 6.9
2014-Aug-20 09:00N 56°30' W 006°36'3 3.3 1016.8 11.5 5.6
2014-Aug-20 08:00N 56°30' W 006°42'2613.2 1017.4 10.9 6.6
2014-Aug-20 06:00N 56°30' W 005°54'1514.6 1016.8 10.6 6.5
2014-Aug-20 05:00N 56°24' W 005°30'0 0.0 1016.5 10.8 6.6
2014-Aug-20 04:00N 56°24' W 005°30'0 0.0 1016.4 11.2 7.5
2014-Aug-20 03:00N 56°24' W 005°30'0 0.0 1016.4 11.3 7.7
2014-Aug-20 01:00N 56°24' W 005°30'0 0.0 1016.6 11.2 7.4
2014-Aug-20 00:00N 56°24' W 005°30'12 3.9 1016.7 11.3 7.9
2014-Aug-19 21:00N 56°30' W 005°48'1817.8 1016.5 11.2 6.5
2014-Aug-19 20:00N 56°42' W 006°12'1817.8 1015.8 11.9 6.8
2014-Aug-19 19:00N 56°30' W 006°36'7 6.6 1015.1 12.1 7.3
2014-Aug-19 18:00N 56°30' W 006°48'1211.6 1016.3 12.9 6.7
2014-Aug-19 17:00N 56°36' W 006°30'10 9.9 1015.4 12.4 6.5
2014-Aug-19 16:00N 56°36' W 006°12'1211.6 1014.7 12.4 7.4
2014-Aug-19 15:00N 56°30' W 005°54'1514.6 1014.6 11.9 7.1
2014-Aug-19 14:00N 56°24' W 005°30'0 0.0 1013.8 13.6 5.9
2014-Aug-19 13:00N 56°24' W 005°30'2020.4 1013.8 12.7 6.2
2014-Aug-19 12:00N 56°36' W 006°00'1211.6 1014.1 12.9 6.5
2014-Aug-19 11:00N 56°42' W 006°18'1817.5 1013.7 11.8 6.4
2014-Aug-19 10:00N 56°48' W 006°48'1414.4 1013.5 11.7 6.8
2014-Aug-19 09:00N 56°54' W 007°12'1211.5 1013.6 11.4 6.2
2014-Aug-19 08:00N 57°00' W 007°30'0 0.0 1014.2 11.7 5.9
2014-Aug-19 07:00N 57°00' W 007°30'0 0.0 1013.7 11.9 6.9
2014-Aug-19 06:00N 57°00' W 007°30'0 0.0 1013.4 10.9 6.3
2014-Aug-19 05:00N 57°00' W 007°30'0 0.0 1013.1 10.1 5.9
2014-Aug-19 04:00N 57°00' W 007°30'0 0.0 1012.9 10.1 6.3
2014-Aug-19 03:00N 57°00' W 007°30'0 0.0 1012.8 10.5 6.4
2014-Aug-19 02:00N 57°00' W 007°30'0 0.0 1012.7 11.1 5.8
2014-Aug-19 01:00N 57°00' W 007°30'0 0.0 1012.8 10.4 5.3
2014-Aug-19 00:00N 57°00' W 007°30'0 0.0 1012.9 10.3 5.2
2014-Aug-18 23:00N 57°00' W 007°30'0 0.0 1012.6 10.7 5.6
2014-Aug-18 22:00N 57°00' W 007°30'0 0.0 1012.8 10.3 5.1
2014-Aug-18 21:00N 57°00' W 007°30'6 6.0 1012.7 10.8 4.9
2014-Aug-18 20:00N 56°54' W 007°30'1616.4 1012.0 10.8 6.0
2014-Aug-18 19:00N 56°54' W 007°00'1414.4 1012.1 11.3 5.5
2014-Aug-18 18:00N 56°48' W 006°36'1817.5 1011.9 11.5 6.8
2014-Aug-18 17:00N 56°42' W 006°06'1615.6 1011.9 11.0 6.7
2014-Aug-18 16:00N 56°30' W 005°48'1211.6 1011.7 12.2 6.1
2014-Aug-18 15:00N 56°24' W 005°30'0 0.0 1011.6 12.0 7.0
2014-Aug-18 14:00N 56°24' W 005°30'9 8.9 1011.5 12.9 6.9
2014-Aug-18 13:00N 56°30' W 005°42'1211.6 1011.5 12.4 5.9
2014-Aug-18 12:00N 56°36' W 006°00'1817.6 1011.8 12.0 5.2
2014-Aug-18 11:00N 56°42' W 006°30'1414.5 1012.2 11.7 6.5
2014-Aug-18 10:00N 56°48' W 006°54'1717.5 1012.4 11.4 6.7
2014-Aug-18 09:00N 56°54' W 007°24'7 3.4 1012.7 10.1 7.6
2014-Aug-18 07:00N 57°00' W 007°30'0 0.0 1013.1 11.0 6.4
2014-Aug-18 06:00N 57°00' W 007°30'6 6.0 1012.8 11.1 6.4
2014-Aug-18 05:00N 56°54' W 007°30'1313.1 1011.4 11.3 6.8
2014-Aug-18 04:00N 56°54' W 007°06'1414.4 1010.7 11.0 7.7
2014-Aug-18 03:00N 56°48' W 006°42'1414.5 1009.4 11.9 7.6
2014-Aug-18 02:00N 56°42' W 006°18'1211.6 1008.5 12.3 8.3
2014-Aug-18 01:00N 56°36' W 006°00'9 8.9 1008.0 12.9 8.8
2014-Aug-18 00:00N 56°30' W 005°48'1211.6 1006.3 12.7 8.8
2014-Aug-17 23:00N 56°24' W 005°30'0 0.0 1004.9 13.210.1
2014-Aug-17 22:00N 56°24' W 005°30'1514.6 1004.2 13.210.1
2014-Aug-17 21:00N 56°30' W 005°54'1817.8 1004.2 13.3 9.7
2014-Aug-17 20:00N 56°42' W 006°18'1414.5 1004.0 12.911.2
2014-Aug-17 19:00N 56°48' W 006°42'1414.4 1003.9 13.111.3
2014-Aug-17 18:00N 56°54' W 007°06'1414.4 1004.6 12.911.1
2014-Aug-17 17:00N 57°00' W 007°30'0 0.0 1005.5 12.811.1
2014-Aug-17 16:00N 57°00' W 007°30'0 0.0 1004.7 13.210.8
2014-Aug-17 15:00N 57°00' W 007°30'0 0.0 1003.9 13.010.9
2014-Aug-17 13:00N 57°00' W 007°30'0 0.0 1002.9 12.311.0
2014-Aug-17 12:00N 57°00' W 007°30'0 0.0 1002.7 11.610.2
2014-Aug-17 11:00N 57°00' W 007°30'0 0.0 1002.6 11.5 9.6
2014-Aug-17 10:00N 57°00' W 007°30'0 0.0 1002.7 11.3 9.1
2014-Aug-17 09:00N 57°00' W 007°30'0 0.0 1002.6 11.9 8.4
2014-Aug-17 08:00N 57°00' W 007°30'0 0.0 1002.9 11.2 8.8
2014-Aug-17 07:00N 57°00' W 007°30'   1002.6 12.0 8.4
Track history (hours):
 
Tides and Currents Weather Stations Pressure Air Temp Water Temp Dewpoint Dewpoint Depression Visibility Wind Speed Wind Dir Waves Ship Positions

Callsign AMOUK21 (name unknown)

Last reported at 2014-Aug-27 07:00 UTC. Time now 2014-Aug-27 09:11 UTC.
Position N 56°36' W 006°18'.

Barometer 1014.7 mb
Air temperature 11.4 ° C
Dewpoint 6.9 ° C

Date/timePositionNaut miles runAvg speedWind from/ knotsBaromVisibWave heightAir tempDewpointWater temp
2014-Aug-27 07:00N 56°36' W 006°18'1313.2 1014.7 11.4 6.9
2014-Aug-27 06:00N 56°36' W 005°54'1817.9 1015.6 11.0 7.0
2014-Aug-27 05:00N 56°24' W 005°30'0 0.0 1016.0 10.5 5.6
2014-Aug-27 04:00N 56°24' W 005°30'0 0.0 1016.4 10.3 5.3
2014-Aug-27 03:00N 56°24' W 005°30'0 0.0 1016.5 10.8 5.4
2014-Aug-27 02:00N 56°24' W 005°30'0 0.0 1016.6 10.9 5.6
2014-Aug-27 01:00N 56°24' W 005°30'0 0.0 1016.5 11.4 5.7
2014-Aug-27 00:00N 56°24' W 005°30'0 0.0 1016.3 11.7 5.9
2014-Aug-26 23:00N 56°24' W 005°30'0 0.0 1016.0 12.4 6.5
2014-Aug-26 22:00N 56°24' W 005°30'1211.6 1015.5 13.2 6.4
2014-Aug-26 21:00N 56°30' W 005°48'1615.6 1015.2 14.4 8.1
2014-Aug-26 20:00N 56°42' W 006°06'2020.4 1014.5 13.7 9.4
2014-Aug-26 19:00N 56°30' W 006°36'3 3.3 1013.6 14.5 9.5
2014-Aug-26 18:00N 56°30' W 006°42'9 8.9 1013.6 14.5 9.0
2014-Aug-26 17:00N 56°36' W 006°30'1211.6 1013.6 16.2 8.3
2014-Aug-26 16:00N 56°42' W 006°12'1817.8 1012.9 17.5 5.4
2014-Aug-26 15:00N 56°30' W 005°48'1211.6 1013.5 16.3 5.1
2014-Aug-26 14:00N 56°24' W 005°30'0 0.0 1013.3 18.0 4.9
2014-Aug-26 13:00N 56°24' W 005°30'1817.9 1013.4 15.3 7.5
2014-Aug-26 12:00N 56°36' W 005°54'1414.5 1013.1 14.8 6.5
2014-Aug-26 11:00N 56°42' W 006°18'1817.5 1012.9 13.8 8.2
2014-Aug-26 10:00N 56°48' W 006°48'1414.4 1012.6 13.1 8.3
2014-Aug-26 09:00N 56°54' W 007°12'1211.5 1011.9 13.3 8.8
2014-Aug-26 08:00N 57°00' W 007°30'0 0.0 1011.3 13.4 9.5
2014-Aug-26 07:00N 57°00' W 007°30'0 0.0 1010.7 12.9 9.0
2014-Aug-26 06:00N 57°00' W 007°30'0 0.0 1010.3 11.3 8.9
2014-Aug-26 05:00N 57°00' W 007°30'0 0.0 1009.8 11.0 8.5
2014-Aug-26 04:00N 57°00' W 007°30'0 0.0 1009.6 11.2 8.6
2014-Aug-26 03:00N 57°00' W 007°30'0 0.0 1009.4 11.7 8.9
2014-Aug-26 02:00N 57°00' W 007°30'0 0.0 1009.3 11.5 8.7
2014-Aug-26 01:00N 57°00' W 007°30'0 0.0 1009.0 12.1 8.9
2014-Aug-26 00:00N 57°00' W 007°30'0 0.0 1008.9 11.8 9.1
2014-Aug-25 23:00N 57°00' W 007°30'0 0.0 1008.5 12.2 9.5
2014-Aug-25 22:00N 57°00' W 007°30'0 0.0 1007.9 13.7 9.3
2014-Aug-25 21:00N 57°00' W 007°30'0 0.0 1007.4 13.8 9.0
2014-Aug-25 20:00N 57°00' W 007°30'1211.5 1006.9 13.4 8.6
2014-Aug-25 19:00N 56°54' W 007°12'1717.5 1006.2 15.7 8.9
2014-Aug-25 18:00N 56°48' W 006°42'1817.5 1005.7 15.4 9.7
2014-Aug-25 17:00N 56°42' W 006°12'1817.8 1005.7 16.6 7.7
2014-Aug-25 16:00N 56°30' W 005°48'1211.6 1006.0 17.4 8.0
2014-Aug-25 15:00N 56°24' W 005°30'0 0.0 1006.5 16.8 7.4
2014-Aug-25 14:00N 56°24' W 005°30'9 8.9 1006.4 16.4 6.8
2014-Aug-25 13:00N 56°30' W 005°42'1514.5 1007.1 15.4 7.1
2014-Aug-25 12:00N 56°36' W 006°06'1414.5 1006.8 16.0 4.8
2014-Aug-25 11:00N 56°42' W 006°30'1414.5 1007.7 14.3 7.3
2014-Aug-25 10:00N 56°48' W 006°54'1717.5 1007.8 13.2 6.4
2014-Aug-25 09:00N 56°54' W 007°24'3 3.3 1008.1 13.0 6.7
2014-Aug-25 08:00N 56°54' W 007°30'1515.5 1008.5 12.7 6.6
2014-Aug-25 07:00N 57°06' W 007°12'7 6.8 1007.1 12.1 7.9
2014-Aug-25 06:00N 57°12' W 007°18'0 0.0 1008.7 11.7 8.1
2014-Aug-25 05:00N 57°12' W 007°18'0 0.0 1009.1 11.8 8.4
2014-Aug-25 04:00N 57°12' W 007°18'0 0.0 1009.6 12.0 8.3
2014-Aug-25 03:00N 57°12' W 007°18'0 0.0 1010.3 12.1 8.3
2014-Aug-25 02:00N 57°12' W 007°18'0 0.0 1011.0 12.2 8.9
2014-Aug-25 01:00N 57°12' W 007°18'0 0.0 1011.6 12.5 8.1
2014-Aug-25 00:00N 57°12' W 007°18'0 0.0 1012.1 12.4 8.2
2014-Aug-24 23:00N 57°12' W 007°18'0 0.0 1012.3 12.0 8.3
2014-Aug-24 22:00N 57°12' W 007°18'1212.0 1012.8 12.2 6.4
2014-Aug-24 21:00N 57°00' W 007°18'7 6.5 1012.9 12.6 7.8
2014-Aug-24 20:00N 57°00' W 007°30'1414.4 1012.9 11.7 7.1
2014-Aug-24 19:00N 56°54' W 007°06'1717.5 1013.3 12.9 6.7
2014-Aug-24 18:00N 56°48' W 006°36'1817.5 1013.6 13.2 5.0
2014-Aug-24 17:00N 56°42' W 006°06'1817.8 1013.9 13.4 5.8
2014-Aug-24 16:00N 56°30' W 005°42'9 8.9 1014.6 14.0 4.1
2014-Aug-24 15:00N 56°24' W 005°30'0 0.0 1015.4 14.8 5.0
2014-Aug-24 14:00N 56°24' W 005°30'7 6.9 1015.7 15.1 4.8
2014-Aug-24 13:00N 56°30' W 005°36'1514.5 1016.0 12.7 4.6
2014-Aug-24 12:00N 56°36' W 006°00'1414.5 1016.1 12.9 3.2
2014-Aug-24 11:00N 56°42' W 006°24'1414.5 1016.5 11.9 4.4
2014-Aug-24 10:00N 56°48' W 006°48'1717.5 1016.5 11.7 5.0
2014-Aug-24 09:00N 56°54' W 007°18'9 8.9 1016.3 11.8 6.2
2014-Aug-24 08:00N 57°00' W 007°30'0 0.0 1016.2 13.4 8.1
2014-Aug-24 07:00N 57°00' W 007°30'0 0.0 1016.2 9.8 7.1
2014-Aug-24 06:00N 57°00' W 007°30'0 0.0 1016.2 8.8 6.5
2014-Aug-24 05:00N 57°00' W 007°30'0 0.0 1016.3 7.2 5.0
2014-Aug-24 04:00N 57°00' W 007°30'0 0.0 1016.5 7.8 5.5
2014-Aug-24 03:00N 57°00' W 007°30'0 0.0 1016.7 8.1 5.5
2014-Aug-24 02:00N 57°00' W 007°30'0 0.0 1017.1 8.3 5.4
2014-Aug-24 01:00N 57°00' W 007°30'0 0.0 1017.4 9.3 5.2
2014-Aug-24 00:00N 57°00' W 007°30'0 0.0 1017.6 10.6 5.7
2014-Aug-23 23:00N 57°00' W 007°30'0 0.0 1017.7 11.0 6.1
2014-Aug-23 22:00N 57°00' W 007°30'0 0.0 1017.7 11.7 5.6
2014-Aug-23 21:00N 57°00' W 007°30'0 0.0 1017.6 11.6 5.6
2014-Aug-23 20:00N 57°00' W 007°30'1211.5 1017.4 11.5 5.7
2014-Aug-23 19:00N 56°54' W 007°12'1414.4 1016.5 11.7 5.8
2014-Aug-23 18:00N 56°48' W 006°48'1817.5 1016.0 12.1 6.1
2014-Aug-23 17:00N 56°42' W 006°18'1414.5 1015.3 12.1 6.3
2014-Aug-23 16:00N 56°36' W 005°54'16 7.8 1015.2 12.5 6.2
2014-Aug-23 14:00N 56°24' W 005°36'1817.9 1015.0 13.0 6.2
2014-Aug-23 13:00N 56°36' W 006°00'1313.2 1015.4 12.8 6.1
2014-Aug-23 12:00N 56°36' W 006°24'9 8.9 1015.3 11.4 6.3
2014-Aug-23 11:00N 56°30' W 006°36'7 6.6 1015.3 10.8 6.4
2014-Aug-23 10:00N 56°30' W 006°48'1211.6 1015.5 11.6 5.4
2014-Aug-23 09:00N 56°36' W 006°30'1211.6 1015.2 11.4 6.6
2014-Aug-23 08:00N 56°42' W 006°12'1817.8 1014.3 11.5 5.8
2014-Aug-23 07:00N 56°30' W 005°48'1211.6 1014.0 10.8 6.8
2014-Aug-23 06:00N 56°24' W 005°30'0 0.0 1013.3 9.3 7.6
2014-Aug-23 05:00N 56°24' W 005°30'0 0.0 1013.0 8.9 7.2
2014-Aug-23 04:00N 56°24' W 005°30'0 0.0 1012.9 9.0 7.1
2014-Aug-23 03:00N 56°24' W 005°30'0 0.0 1012.7 10.3 7.3
2014-Aug-23 02:00N 56°24' W 005°30'0 0.0 1012.7 11.3 8.4
2014-Aug-23 01:00N 56°24' W 005°30'0 0.0 1012.8 10.6 7.7
2014-Aug-23 00:00N 56°24' W 005°30'0 0.0 1012.7 11.0 7.9
2014-Aug-22 23:00N 56°24' W 005°30'1514.6 1012.6 11.2 7.6
2014-Aug-22 22:00N 56°30' W 005°54'1615.6 1012.9 10.6 7.0
2014-Aug-22 21:00N 56°42' W 006°12'1817.5 1012.4 12.1 8.2
2014-Aug-22 20:00N 56°48' W 006°42'1717.5 1011.9 12.0 8.4
2014-Aug-22 19:00N 56°54' W 007°12'1211.5 1011.9 12.0 7.8
2014-Aug-22 18:00N 57°00' W 007°30'1414.4 1013.0 12.4 7.8
2014-Aug-22 17:00N 56°54' W 007°06'1414.4 1011.9 12.0 7.8
2014-Aug-22 16:00N 56°48' W 006°42'1817.5 1011.9 12.0 7.0
2014-Aug-22 15:00N 56°42' W 006°12'1817.8 1011.8 11.9 6.6
2014-Aug-22 14:00N 56°30' W 005°48'3 1.7 1011.4 12.4 5.4
2014-Aug-22 12:00N 56°30' W 005°42'1211.6 1011.4 13.0 7.1
2014-Aug-22 11:00N 56°36' W 006°00'1716.5 1012.0 12.0 6.3
2014-Aug-22 10:00N 56°36' W 006°30'9 8.9 1011.3 11.4 5.9
2014-Aug-22 09:00N 56°30' W 006°42'0 0.0 1010.8 11.4 6.3
2014-Aug-22 08:00N 56°30' W 006°42'1514.5 1011.1 11.3 6.7
2014-Aug-22 07:00N 56°36' W 006°18'1514.5 1010.2 11.5 6.7
2014-Aug-22 06:00N 56°30' W 005°54'15 4.9 1010.3 10.3 7.5
2014-Aug-22 03:00N 56°24' W 005°30'0 0.0 1009.4 11.4 7.9
2014-Aug-22 00:00N 56°24' W 005°30'0 0.0 1009.2 11.3 8.2
2014-Aug-21 23:00N 56°24' W 005°30'0 0.0 1009.0 12.0 9.1
2014-Aug-21 22:00N 56°24' W 005°30'3 3.3 1008.8 11.4 8.1
2014-Aug-21 21:00N 56°24' W 005°36'1817.9 1008.1 12.0 8.6
2014-Aug-21 20:00N 56°36' W 006°00'1313.2 1008.5 12.3 7.8
2014-Aug-21 19:00N 56°36' W 006°24'9 8.9 1006.3 12.6 8.4
2014-Aug-21 18:00N 56°30' W 006°36'3 3.3 1005.7 12.7 7.8
2014-Aug-21 17:00N 56°30' W 006°42'1615.6 1007.1 13.5 9.3
2014-Aug-21 16:00N 56°42' W 007°00'1615.5 1007.6 12.5 8.7
2014-Aug-21 15:00N 56°54' W 007°18'7 6.6 1007.9 12.5 8.2
2014-Aug-21 14:00N 56°54' W 007°30'1414.4 1007.8 11.7 8.5
2014-Aug-21 13:00N 56°48' W 007°06'1615.5 1006.7 12.5 8.4
2014-Aug-21 12:00N 56°36' W 006°48'7 6.9 1006.2 12.2 9.1
2014-Aug-21 11:00N 56°30' W 006°42'9 8.9 1005.9 12.5 8.9
2014-Aug-21 10:00N 56°36' W 006°30'1716.5 1005.5 12.2 8.7
2014-Aug-21 09:00N 56°36' W 006°00'1211.6 1005.2 12.7 9.4
2014-Aug-21 08:00N 56°30' W 005°42'9 8.9 1004.8 12.5 9.3
2014-Aug-21 07:00N 56°24' W 005°30'0 0.0 1005.2 11.6 9.5
2014-Aug-21 06:00N 56°24' W 005°30'0 0.0 1005.5 11.3 9.0
2014-Aug-21 05:00N 56°24' W 005°30'0 0.0 1005.9 11.310.0
2014-Aug-21 04:00N 56°24' W 005°30'0 0.0 1006.9 11.1 9.6
2014-Aug-21 03:00N 56°24' W 005°30'0 0.0 1007.8 11.3 9.7
2014-Aug-21 02:00N 56°24' W 005°30'0 0.0 1009.3 10.7 9.1
2014-Aug-21 01:00N 56°24' W 005°30'0 0.0 1010.3 11.1 8.3
2014-Aug-21 00:00N 56°24' W 005°30'3 3.3 1011.4 10.0 8.0
2014-Aug-20 23:00N 56°24' W 005°36'1817.9 1011.8 10.6 8.7
2014-Aug-20 22:00N 56°36' W 006°00'1211.6 1012.7 10.7 8.2
2014-Aug-20 21:00N 56°42' W 006°18'3216.0 1012.8 11.7 7.7
2014-Aug-20 19:00N 56°54' W 007°12'1211.5 1013.4 12.5 8.7
2014-Aug-20 18:00N 57°00' W 007°30'1414.4 1014.0 12.6 8.1
2014-Aug-20 17:00N 56°54' W 007°06'1717.5 1015.2 10.9 7.4
2014-Aug-20 16:00N 56°48' W 006°36'1414.5 1015.3 11.2 8.0
2014-Aug-20 15:00N 56°42' W 006°12'1817.8 1015.8 12.8 8.3
2014-Aug-20 14:00N 56°30' W 005°48'7 3.3 1016.3 11.7 7.5
2014-Aug-20 12:00N 56°30' W 005°36'1514.5 1016.7 12.8 7.4
2014-Aug-20 11:00N 56°36' W 006°00'1313.2 1017.2 11.8 7.4
2014-Aug-20 10:00N 56°36' W 006°24'9 8.9 1016.9 11.5 6.9
2014-Aug-20 09:00N 56°30' W 006°36'3 3.3 1016.8 11.5 5.6
2014-Aug-20 08:00N 56°30' W 006°42'2613.2 1017.4 10.9 6.6
2014-Aug-20 06:00N 56°30' W 005°54'1514.6 1016.8 10.6 6.5
2014-Aug-20 05:00N 56°24' W 005°30'0 0.0 1016.5 10.8 6.6
2014-Aug-20 04:00N 56°24' W 005°30'0 0.0 1016.4 11.2 7.5
2014-Aug-20 03:00N 56°24' W 005°30'0 0.0 1016.4 11.3 7.7
2014-Aug-20 01:00N 56°24' W 005°30'0 0.0 1016.6 11.2 7.4
2014-Aug-20 00:00N 56°24' W 005°30'12 3.9 1016.7 11.3 7.9
2014-Aug-19 21:00N 56°30' W 005°48'1817.8 1016.5 11.2 6.5
2014-Aug-19 20:00N 56°42' W 006°12'1817.8 1015.8 11.9 6.8
2014-Aug-19 19:00N 56°30' W 006°36'7 6.6 1015.1 12.1 7.3
2014-Aug-19 18:00N 56°30' W 006°48'1211.6 1016.3 12.9 6.7
2014-Aug-19 17:00N 56°36' W 006°30'10 9.9 1015.4 12.4 6.5
2014-Aug-19 16:00N 56°36' W 006°12'1211.6 1014.7 12.4 7.4
2014-Aug-19 15:00N 56°30' W 005°54'1514.6 1014.6 11.9 7.1
2014-Aug-19 14:00N 56°24' W 005°30'0 0.0 1013.8 13.6 5.9
2014-Aug-19 13:00N 56°24' W 005°30'2020.4 1013.8 12.7 6.2
2014-Aug-19 12:00N 56°36' W 006°00'1211.6 1014.1 12.9 6.5
2014-Aug-19 11:00N 56°42' W 006°18'1817.5 1013.7 11.8 6.4
2014-Aug-19 10:00N 56°48' W 006°48'1414.4 1013.5 11.7 6.8
2014-Aug-19 09:00N 56°54' W 007°12'1211.5 1013.6 11.4 6.2
2014-Aug-19 08:00N 57°00' W 007°30'0 0.0 1014.2 11.7 5.9
2014-Aug-19 07:00N 57°00' W 007°30'0 0.0 1013.7 11.9 6.9
2014-Aug-19 06:00N 57°00' W 007°30'0 0.0 1013.4 10.9 6.3
2014-Aug-19 05:00N 57°00' W 007°30'0 0.0 1013.1 10.1 5.9
2014-Aug-19 04:00N 57°00' W 007°30'0 0.0 1012.9 10.1 6.3
2014-Aug-19 03:00N 57°00' W 007°30'0 0.0 1012.8 10.5 6.4
2014-Aug-19 02:00N 57°00' W 007°30'0 0.0 1012.7 11.1 5.8
2014-Aug-19 01:00N 57°00' W 007°30'0 0.0 1012.8 10.4 5.3
2014-Aug-19 00:00N 57°00' W 007°30'0 0.0 1012.9 10.3 5.2
2014-Aug-18 23:00N 57°00' W 007°30'0 0.0 1012.6 10.7 5.6
2014-Aug-18 22:00N 57°00' W 007°30'0 0.0 1012.8 10.3 5.1
2014-Aug-18 21:00N 57°00' W 007°30'6 6.0 1012.7 10.8 4.9
2014-Aug-18 20:00N 56°54' W 007°30'1616.4 1012.0 10.8 6.0
2014-Aug-18 19:00N 56°54' W 007°00'1414.4 1012.1 11.3 5.5
2014-Aug-18 18:00N 56°48' W 006°36'1817.5 1011.9 11.5 6.8
2014-Aug-18 17:00N 56°42' W 006°06'1615.6 1011.9 11.0 6.7
2014-Aug-18 16:00N 56°30' W 005°48'1211.6 1011.7 12.2 6.1
2014-Aug-18 15:00N 56°24' W 005°30'0 0.0 1011.6 12.0 7.0
2014-Aug-18 14:00N 56°24' W 005°30'9 8.9 1011.5 12.9 6.9
2014-Aug-18 13:00N 56°30' W 005°42'1211.6 1011.5 12.4 5.9
2014-Aug-18 12:00N 56°36' W 006°00'1817.6 1011.8 12.0 5.2
2014-Aug-18 11:00N 56°42' W 006°30'1414.5 1012.2 11.7 6.5
2014-Aug-18 10:00N 56°48' W 006°54'1717.5 1012.4 11.4 6.7
2014-Aug-18 09:00N 56°54' W 007°24'7 3.4 1012.7 10.1 7.6
2014-Aug-18 07:00N 57°00' W 007°30'0 0.0 1013.1 11.0 6.4
2014-Aug-18 06:00N 57°00' W 007°30'6 6.0 1012.8 11.1 6.4
2014-Aug-18 05:00N 56°54' W 007°30'1313.1 1011.4 11.3 6.8
2014-Aug-18 04:00N 56°54' W 007°06'1414.4 1010.7 11.0 7.7
2014-Aug-18 03:00N 56°48' W 006°42'1414.5 1009.4 11.9 7.6
2014-Aug-18 02:00N 56°42' W 006°18'1211.6 1008.5 12.3 8.3
2014-Aug-18 01:00N 56°36' W 006°00'9 8.9 1008.0 12.9 8.8
2014-Aug-18 00:00N 56°30' W 005°48'1211.6 1006.3 12.7 8.8
2014-Aug-17 23:00N 56°24' W 005°30'0 0.0 1004.9 13.210.1
2014-Aug-17 22:00N 56°24' W 005°30'1514.6 1004.2 13.210.1
2014-Aug-17 21:00N 56°30' W 005°54'1817.8 1004.2 13.3 9.7
2014-Aug-17 20:00N 56°42' W 006°18'1414.5 1004.0 12.911.2
2014-Aug-17 19:00N 56°48' W 006°42'1414.4 1003.9 13.111.3
2014-Aug-17 18:00N 56°54' W 007°06'1414.4 1004.6 12.911.1
2014-Aug-17 17:00N 57°00' W 007°30'0 0.0 1005.5 12.811.1
2014-Aug-17 16:00N 57°00' W 007°30'0 0.0 1004.7 13.210.8
2014-Aug-17 15:00N 57°00' W 007°30'0 0.0 1003.9 13.010.9
2014-Aug-17 13:00N 57°00' W 007°30'0 0.0 1002.9 12.311.0
2014-Aug-17 12:00N 57°00' W 007°30'0 0.0 1002.7 11.610.2
2014-Aug-17 11:00N 57°00' W 007°30'0 0.0 1002.6 11.5 9.6
2014-Aug-17 10:00N 57°00' W 007°30'0 0.0 1002.7 11.3 9.1
2014-Aug-17 09:00N 57°00' W 007°30'0 0.0 1002.6 11.9 8.4
2014-Aug-17 08:00N 57°00' W 007°30'0 0.0 1002.9 11.2 8.8
2014-Aug-17 07:00N 57°00' W 007°30'   1002.6 12.0 8.4

Dump ship's entire track history